createdAt,value
2018-12-17T00:01:19.815Z,47.14
2018-12-17T00:03:47.373Z,47.14
2018-12-17T00:06:15.016Z,47.12
2018-12-17T00:08:42.609Z,47.27
2018-12-17T00:11:10.557Z,47.44
2018-12-17T00:13:38.097Z,47.22
2018-12-17T00:16:05.680Z,47.18
2018-12-17T00:18:33.252Z,46.94
2018-12-17T00:21:00.828Z,47.08
2018-12-17T00:23:28.404Z,47.27
2018-12-17T00:25:56.001Z,47.44
2018-12-17T00:28:23.562Z,47.18
2018-12-17T00:30:51.111Z,47.22
2018-12-17T00:33:18.684Z,47.20
2018-12-17T00:35:46.304Z,47.37
2018-12-17T00:38:13.985Z,47.29
2018-12-17T00:40:41.521Z,47.03
2018-12-17T00:43:09.126Z,47.37
2018-12-17T00:45:36.716Z,47.24
2018-12-17T00:48:04.336Z,47.68
2018-12-17T00:50:31.916Z,46.94
2018-12-17T00:52:59.443Z,46.95
2018-12-17T00:55:27.336Z,46.92
2018-12-17T00:57:54.929Z,46.87
2018-12-17T01:00:22.476Z,47.04
2018-12-17T01:02:50.098Z,46.98
2018-12-17T01:05:17.666Z,47.12
2018-12-17T01:07:45.290Z,47.27
2018-12-17T01:10:12.869Z,47.40
2018-12-17T01:12:40.436Z,47.21
2018-12-17T01:15:08.687Z,47.59
2018-12-17T01:17:36.305Z,47.19
2018-12-17T01:20:04.901Z,47.20
2018-12-17T01:22:32.507Z,47.58
2018-12-17T01:25:00.097Z,47.20
2018-12-17T01:27:27.700Z,47.15
2018-12-17T01:29:55.264Z,46.96
2018-12-17T01:32:22.940Z,47.17
2018-12-17T01:34:50.509Z,47.34
2018-12-17T01:37:18.102Z,47.33
2018-12-17T01:39:45.748Z,47.33
2018-12-17T01:42:13.326Z,47.20
2018-12-17T01:44:41.054Z,47.32
2018-12-17T01:47:08.672Z,47.64
2018-12-17T01:49:36.411Z,47.53
2018-12-17T01:52:03.979Z,47.63
2018-12-17T01:54:31.563Z,47.22
2018-12-17T01:56:59.149Z,47.02
2018-12-17T01:59:26.718Z,47.20
2018-12-17T02:01:54.345Z,47.21
2018-12-17T02:04:21.926Z,47.47
2018-12-17T02:06:49.550Z,46.85
2018-12-17T02:09:17.197Z,47.17
2018-12-17T02:11:44.768Z,47.42
2018-12-17T02:14:12.312Z,47.18
2018-12-17T02:16:40.793Z,47.29
2018-12-17T02:19:08.358Z,47.16
2018-12-17T02:21:35.919Z,46.99
2018-12-17T02:24:03.542Z,46.99
2018-12-17T02:26:31.287Z,46.78
2018-12-17T02:28:58.833Z,47.30
2018-12-17T02:31:26.408Z,47.02
2018-12-17T02:33:54.016Z,47.26
2018-12-17T02:36:21.625Z,47.08
2018-12-17T02:38:49.178Z,47.40
2018-12-17T02:41:16.787Z,47.04
2018-12-17T02:43:44.383Z,47.23
2018-12-17T02:46:11.900Z,47.31
2018-12-17T02:48:39.881Z,47.03
2018-12-17T02:51:07.462Z,47.10
2018-12-17T02:53:35.055Z,47.17
2018-12-17T02:56:02.712Z,46.91
2018-12-17T02:58:30.343Z,46.94
2018-12-17T03:00:57.921Z,47.15
2018-12-17T03:03:25.549Z,47.31
2018-12-17T03:05:53.127Z,47.16
2018-12-17T03:08:20.673Z,47.22
2018-12-17T03:10:48.321Z,47.07
2018-12-17T03:13:15.897Z,47.08
2018-12-17T03:15:43.551Z,47.22
2018-12-17T03:18:11.145Z,46.99
2018-12-17T03:20:38.717Z,47.36
2018-12-17T03:23:06.329Z,47.22
2018-12-17T03:25:33.934Z,47.17
2018-12-17T03:28:01.519Z,46.91
2018-12-17T03:30:29.124Z,47.09
2018-12-17T03:32:56.736Z,46.88
2018-12-17T03:35:24.357Z,47.09
2018-12-17T03:37:51.954Z,47.02
2018-12-17T03:40:19.540Z,47.11
2018-12-17T03:42:47.126Z,47.28
2018-12-17T03:45:14.671Z,46.96
2018-12-17T03:47:42.303Z,47.05
2018-12-17T03:50:09.912Z,47.10
2018-12-17T03:52:37.475Z,46.97
2018-12-17T03:55:05.274Z,47.21
2018-12-17T03:57:32.867Z,47.07
2018-12-17T04:00:00.406Z,47.05
2018-12-17T04:02:28.034Z,47.05
2018-12-17T04:04:55.885Z,46.74
2018-12-17T04:07:23.604Z,47.21
2018-12-17T04:09:51.445Z,47.55
2018-12-17T04:12:19.099Z,47.08
2018-12-17T04:14:46.690Z,47.49
2018-12-17T04:17:14.280Z,47.22
2018-12-17T04:19:41.870Z,46.78
2018-12-17T04:22:09.504Z,47.18
2018-12-17T04:24:37.051Z,47.43
2018-12-17T04:27:04.681Z,47.47
2018-12-17T04:29:32.268Z,47.08
2018-12-17T04:31:59.910Z,47.14
2018-12-17T04:34:27.529Z,47.02
2018-12-17T04:36:55.139Z,47.28
2018-12-17T04:39:22.749Z,47.07
2018-12-17T04:41:50.350Z,46.61
2018-12-17T04:44:17.998Z,46.98
2018-12-17T04:46:45.598Z,46.86
2018-12-17T04:49:13.222Z,46.95
2018-12-17T04:51:40.765Z,46.63
2018-12-17T04:54:08.345Z,46.46
2018-12-17T04:56:35.902Z,47.10
2018-12-17T04:59:03.511Z,47.02
2018-12-17T05:01:31.070Z,46.51
2018-12-17T05:03:58.710Z,46.30
2018-12-17T05:06:26.308Z,46.48
2018-12-17T05:08:53.866Z,46.55
2018-12-17T05:11:21.497Z,46.58
2018-12-17T05:13:49.071Z,46.54
2018-12-17T05:16:16.826Z,46.19
2018-12-17T05:18:44.432Z,46.57
2018-12-17T05:21:12.024Z,46.80
2018-12-17T05:23:39.626Z,46.44
2018-12-17T05:26:07.237Z,46.54
2018-12-17T05:28:34.844Z,46.65
2018-12-17T05:31:02.465Z,46.58
2018-12-17T05:33:30.219Z,46.62
2018-12-17T05:35:57.935Z,46.52
2018-12-17T05:38:25.571Z,46.42
2018-12-17T05:40:53.278Z,46.72
2018-12-17T05:43:20.878Z,46.10
2018-12-17T05:45:48.424Z,46.45
2018-12-17T05:48:16.021Z,46.21
2018-12-17T05:50:43.602Z,46.28
2018-12-17T05:53:11.638Z,46.42
2018-12-17T05:55:39.206Z,46.57
2018-12-17T05:58:06.769Z,46.52
2018-12-17T06:00:34.361Z,46.35
2018-12-17T06:03:01.974Z,46.41
2018-12-17T06:05:29.665Z,46.22
2018-12-17T06:07:57.253Z,46.34
2018-12-17T06:10:24.847Z,46.37
2018-12-17T06:12:52.464Z,46.23
2018-12-17T06:15:20.088Z,46.44
2018-12-17T06:17:47.688Z,46.28
2018-12-17T06:20:15.266Z,46.34
2018-12-17T06:22:42.889Z,46.32
2018-12-17T06:25:10.501Z,46.30
2018-12-17T06:27:38.688Z,46.39
2018-12-17T06:30:06.335Z,46.34
2018-12-17T06:32:33.891Z,46.42
2018-12-17T06:35:01.624Z,46.25
2018-12-17T06:37:29.185Z,46.40
2018-12-17T06:39:56.796Z,46.33
2018-12-17T06:42:24.393Z,46.27
2018-12-17T06:44:52.025Z,46.41
2018-12-17T06:47:19.630Z,46.14
2018-12-17T06:49:47.210Z,46.52
2018-12-17T06:52:14.792Z,46.40
2018-12-17T06:54:42.633Z,46.25
2018-12-17T06:57:09.859Z,46.29
2018-12-17T06:59:42.679Z,46.55
2018-12-17T07:02:07.589Z,46.36
2018-12-17T07:04:35.165Z,46.26
2018-12-17T07:07:02.803Z,46.35
2018-12-17T07:09:30.370Z,46.18
2018-12-17T07:11:57.972Z,46.16
2018-12-17T07:14:25.561Z,46.37
2018-12-17T07:16:53.167Z,46.27
2018-12-17T07:19:20.750Z,46.27
2018-12-17T07:21:48.476Z,46.38
2018-12-17T07:24:16.050Z,46.08
2018-12-17T07:26:43.637Z,46.40
2018-12-17T07:29:11.284Z,46.50
2018-12-17T07:31:39.014Z,46.42
2018-12-17T07:34:06.602Z,46.38
2018-12-17T07:36:34.136Z,46.36
2018-12-17T07:39:01.734Z,46.46
2018-12-17T07:41:29.354Z,46.54
2018-12-17T07:43:56.937Z,46.45
2018-12-17T07:46:24.553Z,46.78
2018-12-17T07:48:52.137Z,46.53
2018-12-17T07:51:19.739Z,46.53
2018-12-17T07:53:47.335Z,46.53
2018-12-17T07:56:14.940Z,46.46
2018-12-17T07:58:42.465Z,46.53
2018-12-17T08:01:10.063Z,46.32
2018-12-17T08:03:37.665Z,46.34
2018-12-17T08:06:05.264Z,46.91
2018-12-17T08:08:35.594Z,46.39
2018-12-17T08:11:02.467Z,46.67
2018-12-17T08:13:30.294Z,46.68
2018-12-17T08:15:57.888Z,46.16
2018-12-17T08:18:25.453Z,46.54
2018-12-17T08:20:53.061Z,46.46
2018-12-17T08:23:20.620Z,46.09
2018-12-17T08:25:48.587Z,46.26
2018-12-17T08:28:16.212Z,46.42
2018-12-17T08:30:43.801Z,46.60
2018-12-17T08:33:11.379Z,46.13
2018-12-17T08:35:38.969Z,46.25
2018-12-17T08:38:06.673Z,46.37
2018-12-17T08:40:34.237Z,46.20
2018-12-17T08:43:01.847Z,46.29
2018-12-17T08:45:30.493Z,46.04
2018-12-17T08:47:58.323Z,46.34
2018-12-17T08:50:25.907Z,46.10
2018-12-17T08:52:53.465Z,46.15
2018-12-17T08:55:21.106Z,46.04
2018-12-17T08:57:48.727Z,46.14
2018-12-17T09:00:16.320Z,45.99
2018-12-17T09:02:43.951Z,46.21
2018-12-17T09:05:11.525Z,46.25
2018-12-17T09:07:39.450Z,46.18
2018-12-17T09:10:07.685Z,46.30
2018-12-17T09:12:35.257Z,46.21
2018-12-17T09:15:03.218Z,46.22
2018-12-17T09:17:30.932Z,46.16
2018-12-17T09:19:58.482Z,45.99
2018-12-17T09:22:26.068Z,46.08
2018-12-17T09:24:53.690Z,46.03
2018-12-17T09:27:21.342Z,46.09
2018-12-17T09:29:48.991Z,46.08
2018-12-17T09:32:16.550Z,46.15
2018-12-17T09:34:44.181Z,45.89
2018-12-17T09:37:11.819Z,45.84
2018-12-17T09:39:39.760Z,45.68
2018-12-17T09:42:07.366Z,45.79
2018-12-17T09:44:34.946Z,45.86
2018-12-17T09:47:02.524Z,45.96
2018-12-17T09:49:30.112Z,45.77
2018-12-17T09:51:57.726Z,45.77
2018-12-17T09:54:25.306Z,45.69
2018-12-17T09:56:52.880Z,45.89
2018-12-17T09:59:20.499Z,45.84
2018-12-17T10:01:50.690Z,46.09
2018-12-17T10:04:19.117Z,45.76
2018-12-17T10:06:46.859Z,45.94
2018-12-17T10:09:14.499Z,45.90
2018-12-17T10:11:42.183Z,45.83
2018-12-17T10:14:09.911Z,46.08
2018-12-17T10:16:37.448Z,45.90
2018-12-17T10:19:05.074Z,45.99
2018-12-17T10:21:32.704Z,45.90
2018-12-17T10:24:00.325Z,45.87
2018-12-17T10:26:28.265Z,46.19
2018-12-17T10:28:55.913Z,46.00
2018-12-17T10:31:23.537Z,45.85
2018-12-17T10:33:51.120Z,45.90
2018-12-17T10:36:18.792Z,45.92
2018-12-17T10:38:46.361Z,46.02
2018-12-17T10:41:13.981Z,45.81
2018-12-17T10:43:41.553Z,45.83
2018-12-17T10:46:09.106Z,45.76
2018-12-17T10:48:36.749Z,45.97
2018-12-17T10:51:04.358Z,45.76
2018-12-17T10:53:32.422Z,45.79
2018-12-17T10:56:00.072Z,45.67
2018-12-17T10:58:27.667Z,45.64
2018-12-17T11:01:00.963Z,45.77
2018-12-17T11:03:33.855Z,45.79
2018-12-17T11:06:04.808Z,45.74
2018-12-17T11:08:32.403Z,45.83
2018-12-17T11:10:59.954Z,45.51
2018-12-17T11:13:27.564Z,45.72
2018-12-17T11:15:55.165Z,45.31
2018-12-17T11:18:22.783Z,45.45
2018-12-17T11:20:50.397Z,45.39
2018-12-17T11:23:18.196Z,45.46
2018-12-17T11:25:45.837Z,45.38
2018-12-17T11:28:13.423Z,45.45
2018-12-17T11:30:46.522Z,45.58
2018-12-17T11:33:10.700Z,45.61
2018-12-17T11:35:38.316Z,45.58
2018-12-17T11:38:05.939Z,45.57
2018-12-17T11:40:33.544Z,45.58
2018-12-17T11:43:01.163Z,45.66
2018-12-17T11:45:28.941Z,45.48
2018-12-17T11:47:56.547Z,45.46
2018-12-17T11:50:24.145Z,45.29
2018-12-17T11:52:52.038Z,45.52
2018-12-17T11:55:19.607Z,45.27
2018-12-17T11:58:15.244Z,45.39
2018-12-17T12:01:00.907Z,45.57
2018-12-17T12:03:28.851Z,45.35
2018-12-17T12:05:56.464Z,45.40
2018-12-17T12:08:24.024Z,45.61
2018-12-17T12:10:51.606Z,45.71
2018-12-17T12:13:19.157Z,45.42
2018-12-17T12:15:46.774Z,45.50
2018-12-17T12:18:14.344Z,45.40
2018-12-17T12:20:41.937Z,45.46
2018-12-17T12:23:09.564Z,45.40
2018-12-17T12:25:37.173Z,45.52
2018-12-17T12:28:04.894Z,45.73
2018-12-17T12:30:32.736Z,45.38
2018-12-17T12:33:00.341Z,45.50
2018-12-17T12:35:27.909Z,45.51
2018-12-17T12:37:55.547Z,45.61
2018-12-17T12:40:23.094Z,45.63
2018-12-17T12:42:51.737Z,45.72
2018-12-17T12:45:19.669Z,45.73
2018-12-17T12:47:47.229Z,45.87
2018-12-17T12:50:14.831Z,45.59
2018-12-17T12:52:42.447Z,45.73
2018-12-17T12:55:09.999Z,45.74
2018-12-17T12:57:37.584Z,45.52
2018-12-17T13:00:08.523Z,45.74
2018-12-17T13:02:36.105Z,45.57
2018-12-17T13:05:03.830Z,45.63
2018-12-17T13:07:31.468Z,45.27
2018-12-17T13:09:59.064Z,45.71
2018-12-17T13:12:26.675Z,45.48
2018-12-17T13:14:54.233Z,45.58
2018-12-17T13:17:28.408Z,45.66
2018-12-17T13:19:56.300Z,45.61
2018-12-17T13:22:24.343Z,45.62
2018-12-17T13:24:51.932Z,45.58
2018-12-17T13:27:19.549Z,45.57
2018-12-17T13:29:47.201Z,45.71
2018-12-17T13:32:14.767Z,45.61
2018-12-17T13:34:42.343Z,45.66
2018-12-17T13:37:09.970Z,45.44
2018-12-17T13:39:37.675Z,45.51
2018-12-17T13:42:05.204Z,45.66
2018-12-17T13:44:32.771Z,45.74
2018-12-17T13:47:00.380Z,45.75
2018-12-17T13:49:28.012Z,45.50
2018-12-17T13:52:01.161Z,45.75
2018-12-17T13:54:28.766Z,45.54
2018-12-17T13:56:56.608Z,45.68
2018-12-17T13:59:24.181Z,45.87
2018-12-17T14:01:52.205Z,45.57
2018-12-17T14:04:19.798Z,45.71
2018-12-17T14:06:47.524Z,45.93
2018-12-17T14:09:16.731Z,45.97
2018-12-17T14:11:46.576Z,45.76
2018-12-17T14:14:14.701Z,45.62
2018-12-17T14:16:47.882Z,45.77
2018-12-17T14:19:19.375Z,45.91
2018-12-17T14:21:53.427Z,45.95
2018-12-17T14:24:21.233Z,45.99
2018-12-17T14:26:48.892Z,45.79
2018-12-17T14:29:16.477Z,46.09
2018-12-17T14:31:44.045Z,45.81
2018-12-17T14:34:11.611Z,45.86
2018-12-17T14:36:39.275Z,46.02
2018-12-17T14:39:08.215Z,45.97
2018-12-17T14:41:35.815Z,45.74
2018-12-17T14:44:35.998Z,45.99
2018-12-17T14:47:03.605Z,45.88
2018-12-17T14:49:31.202Z,45.84
2018-12-17T14:51:58.778Z,45.89
2018-12-17T14:54:26.393Z,45.66
2018-12-17T14:56:54.068Z,45.60
2018-12-17T14:59:21.649Z,45.83
2018-12-17T15:01:49.519Z,45.70
2018-12-17T15:04:17.118Z,45.77
2018-12-17T15:06:44.684Z,45.61
2018-12-17T15:09:12.294Z,45.59
2018-12-17T15:11:39.922Z,45.65
2018-12-17T15:14:07.584Z,45.81
2018-12-17T15:16:35.156Z,45.74
2018-12-17T15:19:02.772Z,45.69
2018-12-17T15:21:30.347Z,45.77
2018-12-17T15:23:57.953Z,45.77
2018-12-17T15:26:25.937Z,45.50
2018-12-17T15:28:53.491Z,45.77
2018-12-17T15:31:21.123Z,45.76
2018-12-17T15:33:48.837Z,45.67
2018-12-17T15:36:16.472Z,45.46
2018-12-17T15:38:44.128Z,45.64
2018-12-17T15:41:11.675Z,45.65
2018-12-17T15:43:39.398Z,45.62
2018-12-17T15:46:06.972Z,45.87
2018-12-17T15:48:34.528Z,45.55
2018-12-17T15:51:02.164Z,45.57
2018-12-17T15:53:29.773Z,45.54
2018-12-17T15:55:57.299Z,45.71
2018-12-17T15:58:24.859Z,45.65
2018-12-17T16:00:52.509Z,45.58
2018-12-17T16:03:20.099Z,45.90
2018-12-17T16:05:47.633Z,45.57
2018-12-17T16:08:15.316Z,45.71
2018-12-17T16:10:42.905Z,45.93
2018-12-17T16:13:10.796Z,45.82
2018-12-17T16:15:38.372Z,45.68
2018-12-17T16:18:05.965Z,45.70
2018-12-17T16:20:33.583Z,45.71
2018-12-17T16:23:01.341Z,45.85
2018-12-17T16:25:28.936Z,45.76
2018-12-17T16:27:56.544Z,45.93
2018-12-17T16:30:24.158Z,45.93
2018-12-17T16:32:51.764Z,45.73
2018-12-17T16:35:19.366Z,45.95
2018-12-17T16:37:46.950Z,45.65
2018-12-17T16:40:14.782Z,45.76
2018-12-17T16:42:42.370Z,45.54
2018-12-17T16:45:10.044Z,45.40
2018-12-17T16:47:37.645Z,45.55
2018-12-17T16:50:07.384Z,45.54
2018-12-17T16:52:34.993Z,45.78
2018-12-17T16:55:02.563Z,45.63
2018-12-17T16:57:30.268Z,45.56
2018-12-17T16:59:57.858Z,45.72
2018-12-17T17:02:25.502Z,45.80
2018-12-17T17:04:53.097Z,45.86
2018-12-17T17:07:20.677Z,45.61
2018-12-17T17:09:48.271Z,45.60
2018-12-17T17:12:15.808Z,45.82
2018-12-17T17:14:43.420Z,45.58
2018-12-17T17:17:11.010Z,45.70
2018-12-17T17:19:38.656Z,45.66
2018-12-17T17:22:06.258Z,45.71
2018-12-17T17:24:33.896Z,45.71
2018-12-17T17:27:01.489Z,45.66
2018-12-17T17:29:29.126Z,45.86
2018-12-17T17:31:56.705Z,45.72
2018-12-17T17:34:24.409Z,45.75
2018-12-17T17:36:52.031Z,45.66
2018-12-17T17:39:19.613Z,45.77
2018-12-17T17:41:47.269Z,45.81
2018-12-17T17:44:14.865Z,45.86
2018-12-17T17:46:42.454Z,45.69
2018-12-17T17:49:10.082Z,45.89
2018-12-17T17:51:37.826Z,45.69
2018-12-17T17:54:05.472Z,45.94
2018-12-17T17:56:33.060Z,45.78
2018-12-17T17:59:00.671Z,45.74
2018-12-17T18:01:28.307Z,46.04
2018-12-17T18:03:55.912Z,45.58
2018-12-17T18:06:23.626Z,45.59
2018-12-17T18:08:57.896Z,45.74
2018-12-17T18:11:25.736Z,45.58
2018-12-17T18:13:53.349Z,45.86
2018-12-17T18:16:20.946Z,45.81
2018-12-17T18:18:48.616Z,45.78
2018-12-17T18:21:16.223Z,45.85
2018-12-17T18:23:43.828Z,45.79
2018-12-17T18:26:11.531Z,45.80
2018-12-17T18:28:39.187Z,45.78
2018-12-17T18:31:06.863Z,45.77
2018-12-17T18:33:34.646Z,45.60
2018-12-17T18:36:02.277Z,45.90
2018-12-17T18:38:29.913Z,45.90
2018-12-17T18:40:57.622Z,45.89
2018-12-17T18:43:25.457Z,45.75
2018-12-17T18:45:53.066Z,45.86
2018-12-17T18:48:20.702Z,45.80
2018-12-17T18:50:48.420Z,45.89
2018-12-17T18:53:16.026Z,45.91
2018-12-17T18:55:43.623Z,45.60
2018-12-17T18:58:11.516Z,45.77
2018-12-17T19:00:39.119Z,45.67
2018-12-17T19:03:06.732Z,45.71
2018-12-17T19:05:34.382Z,45.76
2018-12-17T19:08:02.061Z,45.75
2018-12-17T19:10:34.154Z,45.81
2018-12-17T19:13:01.968Z,45.65
2018-12-17T19:15:29.605Z,45.75
2018-12-17T19:17:57.225Z,45.85
2018-12-17T19:20:24.893Z,45.72
2018-12-17T19:22:52.507Z,45.68
2018-12-17T19:25:20.082Z,45.57
2018-12-17T19:27:47.756Z,45.88
2018-12-17T19:30:15.410Z,45.92
2018-12-17T19:32:43.160Z,45.70
2018-12-17T19:35:10.792Z,45.70
2018-12-17T19:37:38.391Z,45.72
2018-12-17T19:40:07.389Z,45.77
2018-12-17T19:42:34.988Z,45.72
2018-12-17T19:45:02.609Z,45.90
2018-12-17T19:47:30.369Z,45.91
2018-12-17T19:49:57.960Z,45.79
2018-12-17T19:52:25.555Z,45.72
2018-12-17T19:54:53.237Z,45.83
2018-12-17T19:57:21.003Z,45.74
2018-12-17T19:59:48.639Z,45.99
2018-12-17T20:02:16.277Z,45.82
2018-12-17T20:04:43.897Z,45.78
2018-12-17T20:07:11.557Z,45.73
2018-12-17T20:09:39.302Z,45.74
2018-12-17T20:12:06.959Z,45.73
2018-12-17T20:14:34.544Z,45.70
2018-12-17T20:17:02.236Z,45.74
2018-12-17T20:19:29.848Z,45.87
2018-12-17T20:21:57.441Z,45.82
2018-12-17T20:24:25.139Z,45.99
2018-12-17T20:26:52.735Z,45.89
2018-12-17T20:29:20.441Z,46.13
2018-12-17T20:31:48.230Z,46.27
2018-12-17T20:34:15.805Z,46.54
2018-12-17T20:36:43.429Z,46.34
2018-12-17T20:39:11.124Z,46.52
2018-12-17T20:41:39.594Z,47.01
2018-12-17T20:44:08.130Z,47.06
2018-12-17T20:46:37.604Z,47.04
2018-12-17T20:49:05.647Z,47.02
2018-12-17T20:51:34.163Z,47.35
2018-12-17T20:54:01.728Z,47.46
2018-12-17T20:56:30.988Z,47.31
2018-12-17T20:58:59.857Z,47.37
2018-12-17T21:01:28.262Z,47.52
2018-12-17T21:03:59.087Z,47.66
2018-12-17T21:06:26.821Z,47.78
2018-12-17T21:08:57.987Z,47.68
2018-12-17T21:14:11.444Z,48.06
2018-12-17T21:16:39.917Z,47.84
2018-12-17T21:19:07.803Z,48.19
2018-12-17T21:21:36.888Z,48.35
2018-12-17T21:24:04.819Z,47.98
2018-12-17T21:26:32.842Z,48.29
2018-12-17T21:29:00.947Z,48.33
2018-12-17T21:31:28.618Z,48.42
2018-12-17T21:33:56.727Z,48.23
2018-12-17T21:36:24.532Z,48.22
2018-12-17T21:38:52.844Z,48.06
2018-12-17T21:44:06.061Z,48.06
2018-12-17T21:46:34.104Z,48.08
2018-12-17T21:49:02.462Z,48.00
2018-12-17T21:51:30.567Z,48.05
2018-12-17T21:53:58.241Z,47.83
2018-12-17T21:56:25.982Z,47.84
2018-12-17T21:58:53.799Z,48.04
2018-12-17T22:01:22.340Z,47.98
2018-12-17T22:03:50.978Z,48.04
2018-12-17T22:06:18.690Z,48.31
2018-12-17T22:08:46.322Z,48.16
2018-12-17T22:11:14.025Z,48.13
2018-12-17T22:13:44.853Z,48.27
2018-12-17T22:16:12.575Z,48.13
2018-12-17T22:18:40.300Z,48.18
2018-12-17T22:21:08.802Z,48.11
2018-12-17T22:23:36.710Z,47.97
2018-12-17T22:26:04.549Z,48.26
2018-12-17T22:28:32.771Z,48.31
2018-12-17T22:31:00.591Z,48.47
2018-12-17T22:33:28.476Z,48.46
2018-12-17T22:35:56.539Z,48.38
2018-12-17T22:38:24.301Z,48.37
2018-12-17T22:40:52.019Z,48.42
2018-12-17T22:43:19.894Z,48.18
2018-12-17T22:45:47.493Z,48.33
2018-12-17T22:48:22.100Z,48.30
2018-12-17T22:50:50.410Z,48.46
2018-12-17T22:53:18.153Z,49.01
2018-12-17T22:55:45.915Z,49.18
2018-12-17T22:58:13.951Z,49.19
2018-12-17T23:00:41.874Z,49.13
2018-12-17T23:03:09.851Z,49.13
2018-12-17T23:05:37.724Z,48.92
2018-12-17T23:08:05.458Z,49.00
2018-12-17T23:10:44.896Z,49.29
2018-12-17T23:13:23.797Z,49.14
2018-12-17T23:16:02.942Z,48.90
2018-12-17T23:18:29.642Z,49.05
2018-12-17T23:20:57.762Z,49.18
2018-12-17T23:23:25.506Z,49.40
2018-12-17T23:25:53.380Z,49.10
2018-12-17T23:28:21.676Z,49.39
2018-12-17T23:30:49.454Z,49.33
2018-12-17T23:33:17.677Z,49.08
2018-12-17T23:35:45.316Z,49.36
2018-12-17T23:38:17.148Z,49.07
2018-12-17T23:40:45.263Z,49.33
2018-12-17T23:43:12.946Z,49.73
2018-12-17T23:45:41.099Z,49.65
2018-12-17T23:48:08.798Z,49.83
2018-12-17T23:50:36.461Z,49.67
2018-12-17T23:53:04.334Z,49.87
2018-12-17T23:55:32.546Z,49.80
2018-12-17T23:58:01.048Z,50.37
